sensor_id;sensor_type;location;lat;lon;timestamp;pressure;altitude;pressure_sealevel;temperature;humidity
54262;BME280;40174;52.364;6.452;2022-07-06T00:00:44;102261.47;;;13.34;95.90
54262;BME280;40174;52.364;6.452;2022-07-06T00:03:10;102252.25;;;13.39;95.23
54262;BME280;40174;52.364;6.452;2022-07-06T00:05:37;102251.41;;;13.39;95.75
54262;BME280;40174;52.364;6.452;2022-07-06T00:08:04;102247.69;;;13.41;95.75
54262;BME280;40174;52.364;6.452;2022-07-06T00:10:31;102248.53;;;13.42;96.12
54262;BME280;40174;52.364;6.452;2022-07-06T00:12:58;102257.34;;;13.42;95.99
54262;BME280;40174;52.364;6.452;2022-07-06T00:15:24;102255.50;;;13.43;95.96
54262;BME280;40174;52.364;6.452;2022-07-06T00:17:51;102259.16;;;13.42;96.03
54262;BME280;40174;52.364;6.452;2022-07-06T00:20:18;102254.06;;;13.39;96.33
54262;BME280;40174;52.364;6.452;2022-07-06T00:22:44;102264.03;;;13.35;96.40
54262;BME280;40174;52.364;6.452;2022-07-06T00:25:11;102257.13;;;13.33;96.66
54262;BME280;40174;52.364;6.452;2022-07-06T00:27:38;102255.31;;;13.33;96.40
54262;BME280;40174;52.364;6.452;2022-07-06T00:30:06;102259.56;;;13.36;96.65
54262;BME280;40174;52.364;6.452;2022-07-06T00:32:33;102258.94;;;13.32;96.82
54262;BME280;40174;52.364;6.452;2022-07-06T00:34:59;102259.03;;;13.30;96.87
54262;BME280;40174;52.364;6.452;2022-07-06T00:37:27;102253.81;;;13.29;97.17
54262;BME280;40174;52.364;6.452;2022-07-06T00:39:53;102252.22;;;13.26;97.24
54262;BME280;40174;52.364;6.452;2022-07-06T00:42:20;102248.06;;;13.22;97.33
54262;BME280;40174;52.364;6.452;2022-07-06T00:44:48;102261.56;;;13.19;97.27
54262;BME280;40174;52.364;6.452;2022-07-06T00:47:14;102249.22;;;13.18;97.39
54262;BME280;40174;52.364;6.452;2022-07-06T00:49:41;102262.19;;;13.10;97.40
54262;BME280;40174;52.364;6.452;2022-07-06T00:52:25;102257.69;;;12.98;98.12
54262;BME280;40174;52.364;6.452;2022-07-06T00:54:51;102260.56;;;12.95;98.99
54262;BME280;40174;52.364;6.452;2022-07-06T00:57:19;102261.63;;;12.92;99.17
54262;BME280;40174;52.364;6.452;2022-07-06T00:59:47;102266.41;;;12.87;99.27
54262;BME280;40174;52.364;6.452;2022-07-06T01:02:14;102267.56;;;12.83;99.63
54262;BME280;40174;52.364;6.452;2022-07-06T01:04:40;102268.63;;;12.80;99.67
54262;BME280;40174;52.364;6.452;2022-07-06T01:07:07;102276.13;;;12.74;100.00
54262;BME280;40174;52.364;6.452;2022-07-06T01:09:33;102274.25;;;12.76;100.00
54262;BME280;40174;52.364;6.452;2022-07-06T01:12:00;102269.97;;;12.73;100.00
54262;BME280;40174;52.364;6.452;2022-07-06T01:14:26;102278.03;;;12.72;100.00
54262;BME280;40174;52.364;6.452;2022-07-06T01:16:55;102276.44;;;12.69;100.00
54262;BME280;40174;52.364;6.452;2022-07-06T01:19:22;102264.03;;;12.69;100.00
54262;BME280;40174;52.364;6.452;2022-07-06T01:21:50;102264.88;;;12.70;100.00
54262;BME280;40174;52.364;6.452;2022-07-06T01:24:17;102265.63;;;12.72;100.00
54262;BME280;40174;52.364;6.452;2022-07-06T01:26:44;102259.34;;;12.73;100.00
54262;BME280;40174;52.364;6.452;2022-07-06T01:29:10;102259.47;;;12.72;100.00
54262;BME280;40174;52.364;6.452;2022-07-06T01:31:45;102252.13;;;12.75;100.00
54262;BME280;40174;52.364;6.452;2022-07-06T01:34:12;102253.72;;;12.78;100.00
54262;BME280;40174;52.364;6.452;2022-07-06T01:36:39;102256.59;;;12.75;100.00
54262;BME280;40174;52.364;6.452;2022-07-06T01:39:08;102247.72;;;12.76;100.00
54262;BME280;40174;52.364;6.452;2022-07-06T01:41:36;102249.41;;;12.77;100.00
54262;BME280;40174;52.364;6.452;2022-07-06T01:44:03;102250.25;;;12.77;100.00
54262;BME280;40174;52.364;6.452;2022-07-06T01:46:30;102249.31;;;12.78;100.00
54262;BME280;40174;52.364;6.452;2022-07-06T01:48:57;102249.31;;;12.78;100.00
54262;BME280;40174;52.364;6.452;2022-07-06T01:51:24;102245.91;;;12.76;100.00
54262;BME280;40174;52.364;6.452;2022-07-06T01:53:52;102245.91;;;12.76;100.00
54262;BME280;40174;52.364;6.452;2022-07-06T01:56:21;102242.28;;;12.77;100.00
54262;BME280;40174;52.364;6.452;2022-07-06T01:58:51;102239.44;;;12.80;100.00
54262;BME280;40174;52.364;6.452;2022-07-06T02:01:20;102244.75;;;12.80;100.00
54262;BME280;40174;52.364;6.452;2022-07-06T02:03:47;102247.94;;;12.85;100.00
54262;BME280;40174;52.364;6.452;2022-07-06T02:06:14;102252.19;;;12.88;100.00
54262;BME280;40174;52.364;6.452;2022-07-06T02:08:42;102244.97;;;12.90;100.00
54262;BME280;40174;52.364;6.452;2022-07-06T02:11:10;102242.31;;;12.90;100.00
54262;BME280;40174;52.364;6.452;2022-07-06T02:13:40;102247.41;;;12.93;100.00
54262;BME280;40174;52.364;6.452;2022-07-06T02:16:10;102240.72;;;12.87;100.00
54262;BME280;40174;52.364;6.452;2022-07-06T02:18:36;102247.31;;;12.95;100.00
54262;BME280;40174;52.364;6.452;2022-07-06T02:21:04;102240.84;;;12.99;100.00
54262;BME280;40174;52.364;6.452;2022-07-06T02:23:31;102237.97;;;13.02;100.00
54262;BME280;40174;52.364;6.452;2022-07-06T02:25:58;102240.31;;;13.06;100.00
54262;BME280;40174;52.364;6.452;2022-07-06T02:28:25;102242.03;;;13.07;100.00
54262;BME280;40174;52.364;6.452;2022-07-06T02:30:53;102239.56;;;13.04;100.00
54262;BME280;40174;52.364;6.452;2022-07-06T02:33:20;102239.47;;;13.06;100.00
54262;BME280;40174;52.364;6.452;2022-07-06T02:35:46;102242.88;;;13.08;100.00
54262;BME280;40174;52.364;6.452;2022-07-06T02:38:13;102246.78;;;13.02;100.00
54262;BME280;40174;52.364;6.452;2022-07-06T02:40:40;102245.84;;;13.03;100.00
54262;BME280;40174;52.364;6.452;2022-07-06T02:43:07;102251.03;;;13.05;100.00
54262;BME280;40174;52.364;6.452;2022-07-06T02:45:35;102255.59;;;13.03;100.00
54262;BME280;40174;52.364;6.452;2022-07-06T02:48:04;102252.38;;;12.98;100.00
54262;BME280;40174;52.364;6.452;2022-07-06T02:50:32;102236.47;;;12.98;100.00
54262;BME280;40174;52.364;6.452;2022-07-06T02:52:58;102241.78;;;12.98;100.00
54262;BME280;40174;52.364;6.452;2022-07-06T02:55:27;102245.19;;;13.00;100.00
54262;BME280;40174;52.364;6.452;2022-07-06T02:57:54;102248.69;;;13.00;100.00
54262;BME280;40174;52.364;6.452;2022-07-06T03:00:22;102246.91;;;13.01;100.00
54262;BME280;40174;52.364;6.452;2022-07-06T03:02:50;102245.09;;;13.01;100.00
54262;BME280;40174;52.364;6.452;2022-07-06T03:05:18;102246.69;;;13.04;100.00
54262;BME280;40174;52.364;6.452;2022-07-06T03:07:45;102243.19;;;13.03;100.00
54262;BME280;40174;52.364;6.452;2022-07-06T03:10:13;102251.97;;;13.04;100.00
54262;BME280;40174;52.364;6.452;2022-07-06T03:12:39;102242.22;;;13.04;100.00
54262;BME280;40174;52.364;6.452;2022-07-06T03:15:07;102239.47;;;13.06;100.00
54262;BME280;40174;52.364;6.452;2022-07-06T03:17:36;102246.34;;;13.08;100.00
54262;BME280;40174;52.364;6.452;2022-07-06T03:20:05;102247.31;;;13.07;100.00
54262;BME280;40174;52.364;6.452;2022-07-06T03:22:33;102259.63;;;13.08;100.00
54262;BME280;40174;52.364;6.452;2022-07-06T03:25:01;102264.00;;;13.09;100.00
54262;BME280;40174;52.364;6.452;2022-07-06T03:27:28;102265.69;;;13.10;100.00
54262;BME280;40174;52.364;6.452;2022-07-06T03:29:55;102261.97;;;13.13;100.00
54262;BME280;40174;52.364;6.452;2022-07-06T03:32:22;102267.28;;;13.13;100.00
54262;BME280;40174;52.364;6.452;2022-07-06T03:34:48;102268.25;;;13.12;100.00
54262;BME280;40174;52.364;6.452;2022-07-06T03:37:15;102267.41;;;13.12;100.00
54262;BME280;40174;52.364;6.452;2022-07-06T03:39:43;102266.44;;;13.13;100.00
54262;BME280;40174;52.364;6.452;2022-07-06T03:42:10;102264.84;;;13.10;100.00
54262;BME280;40174;52.364;6.452;2022-07-06T03:44:38;102265.78;;;13.09;100.00
54262;BME280;40174;52.364;6.452;2022-07-06T03:47:04;102262.94;;;13.12;100.00
54262;BME280;40174;52.364;6.452;2022-07-06T03:49:32;102256.66;;;13.13;100.00
54262;BME280;40174;52.364;6.452;2022-07-06T03:52:00;102268.13;;;13.14;100.00
54262;BME280;40174;52.364;6.452;2022-07-06T03:54:30;102263.03;;;13.10;100.00
54262;BME280;40174;52.364;6.452;2022-07-06T03:56:59;102270.34;;;13.07;100.00
54262;BME280;40174;52.364;6.452;2022-07-06T03:59:26;102263.03;;;13.10;100.00
54262;BME280;40174;52.364;6.452;2022-07-06T04:01:53;102261.44;;;13.08;100.00
54262;BME280;40174;52.364;6.452;2022-07-06T04:04:20;102265.03;;;13.07;100.00
54262;BME280;40174;52.364;6.452;2022-07-06T04:06:47;102252.50;;;13.09;100.00
54262;BME280;40174;52.364;6.452;2022-07-06T04:09:14;102261.44;;;13.08;100.00
54262;BME280;40174;52.364;6.452;2022-07-06T04:11:41;102256.22;;;13.06;100.00
54262;BME280;40174;52.364;6.452;2022-07-06T04:14:09;102253.56;;;13.06;100.00
54262;BME280;40174;52.364;6.452;2022-07-06T04:16:37;102249.84;;;13.09;100.00
54262;BME280;40174;52.364;6.452;2022-07-06T04:19:04;102257.63;;;13.12;100.00
54262;BME280;40174;52.364;6.452;2022-07-06T04:21:31;102260.69;;;13.06;100.00
54262;BME280;40174;52.364;6.452;2022-07-06T04:23:58;102263.44;;;13.04;100.00
54262;BME280;40174;52.364;6.452;2022-07-06T04:26:26;102265.03;;;13.07;100.00
54262;BME280;40174;52.364;6.452;2022-07-06T04:28:55;102265.59;;;13.12;100.00
54262;BME280;40174;52.364;6.452;2022-07-06T04:31:24;102260.81;;;13.17;100.00
54262;BME280;40174;52.364;6.452;2022-07-06T04:33:51;102258.25;;;13.16;100.00
54262;BME280;40174;52.364;6.452;2022-07-06T04:36:17;102262.50;;;13.18;100.00
54262;BME280;40174;52.364;6.452;2022-07-06T04:38:45;102266.88;;;13.19;100.00
54262;BME280;40174;52.364;6.452;2022-07-06T04:41:13;102266.66;;;13.22;100.00
54262;BME280;40174;52.364;6.452;2022-07-06T04:43:40;102253.50;;;13.21;100.00
54262;BME280;40174;52.364;6.452;2022-07-06T04:46:09;102259.44;;;13.24;100.00
54262;BME280;40174;52.364;6.452;2022-07-06T04:48:40;102265.47;;;13.26;100.00
54262;BME280;40174;52.364;6.452;2022-07-06T04:51:12;102265.56;;;13.25;100.00
54262;BME280;40174;52.364;6.452;2022-07-06T04:53:39;102262.41;;;13.20;100.00
54262;BME280;40174;52.364;6.452;2022-07-06T04:56:06;102267.63;;;13.21;100.00
54262;BME280;40174;52.364;6.452;2022-07-06T04:58:36;102266.66;;;13.22;100.00
54262;BME280;40174;52.364;6.452;2022-07-06T05:01:02;102275.34;;;13.24;100.00
54262;BME280;40174;52.364;6.452;2022-07-06T05:03:29;102271.09;;;13.22;100.00
54262;BME280;40174;52.364;6.452;2022-07-06T05:05:57;102267.28;;;13.26;100.00
54262;BME280;40174;52.364;6.452;2022-07-06T05:08:23;102268.81;;;13.30;100.00
54262;BME280;40174;52.364;6.452;2022-07-06T05:10:51;102264.34;;;13.30;100.00
54262;BME280;40174;52.364;6.452;2022-07-06T05:13:19;102271.91;;;13.37;100.00
54262;BME280;40174;52.364;6.452;2022-07-06T05:15:46;102276.06;;;13.41;100.00
54262;BME280;40174;52.364;6.452;2022-07-06T05:18:16;102282.06;;;13.43;100.00
54262;BME280;40174;52.364;6.452;2022-07-06T05:20:43;102281.03;;;13.45;100.00
54262;BME280;40174;52.364;6.452;2022-07-06T05:23:12;102279.00;;;13.49;100.00
54262;BME280;40174;52.364;6.452;2022-07-06T05:25:39;102277.09;;;13.51;100.00
54262;BME280;40174;52.364;6.452;2022-07-06T05:28:06;102287.50;;;13.54;100.00
54262;BME280;40174;52.364;6.452;2022-07-06T05:30:32;102284.97;;;13.52;100.00
54262;BME280;40174;52.364;6.452;2022-07-06T05:32:59;102291.44;;;13.48;100.00
54262;BME280;40174;52.364;6.452;2022-07-06T05:35:26;102288.47;;;13.53;100.00
54262;BME280;40174;52.364;6.452;2022-07-06T05:37:53;102286.31;;;13.58;100.00
54262;BME280;40174;52.364;6.452;2022-07-06T05:40:21;102295.69;;;13.64;100.00
54262;BME280;40174;52.364;6.452;2022-07-06T05:42:48;102295.38;;;13.68;100.00
54262;BME280;40174;52.364;6.452;2022-07-06T05:45:14;102290.38;;;13.77;100.00
54262;BME280;40174;52.364;6.452;2022-07-06T05:47:42;102290.75;;;13.83;100.00
54262;BME280;40174;52.364;6.452;2022-07-06T05:50:28;102292.03;;;13.90;100.00
54262;BME280;40174;52.364;6.452;2022-07-06T05:52:56;102291.47;;;13.98;100.00
54262;BME280;40174;52.364;6.452;2022-07-06T05:55:25;102296.97;;;14.08;100.00
54262;BME280;40174;52.364;6.452;2022-07-06T05:57:53;102298.13;;;14.17;100.00
54262;BME280;40174;52.364;6.452;2022-07-06T06:00:22;102306.41;;;14.25;100.00
54262;BME280;40174;52.364;6.452;2022-07-06T06:02:52;102312.13;;;14.31;100.00
54262;BME280;40174;52.364;6.452;2022-07-06T06:05:20;102308.06;;;14.39;100.00
54262;BME280;40174;52.364;6.452;2022-07-06T06:07:49;102304.72;;;14.48;100.00
54262;BME280;40174;52.364;6.452;2022-07-06T06:10:19;102306.00;;;14.55;100.00
54262;BME280;40174;52.364;6.452;2022-07-06T06:12:50;102309.78;;;14.64;99.99
54262;BME280;40174;52.364;6.452;2022-07-06T06:15:17;102303.91;;;14.71;99.37
54262;BME280;40174;52.364;6.452;2022-07-06T06:17:44;102315.78;;;14.79;98.48
54262;BME280;40174;52.364;6.452;2022-07-06T06:20:12;102308.31;;;14.84;98.80
54262;BME280;40174;52.364;6.452;2022-07-06T06:22:46;102304.34;;;14.89;99.01
54262;BME280;40174;52.364;6.452;2022-07-06T06:25:13;102314.66;;;14.94;98.43
54262;BME280;40174;52.364;6.452;2022-07-06T06:27:40;102313.31;;;15.00;98.18
54262;BME280;40174;52.364;6.452;2022-07-06T06:30:09;102307.53;;;15.06;97.61
54262;BME280;40174;52.364;6.452;2022-07-06T06:32:36;102309.75;;;15.12;97.72
54262;BME280;40174;52.364;6.452;2022-07-06T06:35:03;102316.28;;;15.19;96.64
54262;BME280;40174;52.364;6.452;2022-07-06T06:37:30;102311.34;;;15.26;96.09
54262;BME280;40174;52.364;6.452;2022-07-06T06:39:56;102305.66;;;15.30;94.32
54262;BME280;40174;52.364;6.452;2022-07-06T06:42:23;102306.28;;;15.34;93.14
54262;BME280;40174;52.364;6.452;2022-07-06T06:44:51;102308.59;;;15.38;92.89
54262;BME280;40174;52.364;6.452;2022-07-06T06:47:18;102304.13;;;15.50;92.39
54262;BME280;40174;52.364;6.452;2022-07-06T06:49:45;102308.47;;;15.63;87.50
54262;BME280;40174;52.364;6.452;2022-07-06T06:52:12;102310.34;;;15.73;87.32
54262;BME280;40174;52.364;6.452;2022-07-06T06:54:38;102316.16;;;15.90;86.51
54262;BME280;40174;52.364;6.452;2022-07-06T06:57:05;102313.22;;;16.04;84.03
54262;BME280;40174;52.364;6.452;2022-07-06T06:59:32;102318.09;;;16.10;81.70
54262;BME280;40174;52.364;6.452;2022-07-06T07:01:58;102315.50;;;16.20;82.78
54262;BME280;40174;52.364;6.452;2022-07-06T07:04:26;102314.03;;;16.27;81.72
54262;BME280;40174;52.364;6.452;2022-07-06T07:06:54;102318.28;;;16.30;80.43
54262;BME280;40174;52.364;6.452;2022-07-06T07:09:21;102320.44;;;16.36;79.80
54262;BME280;40174;52.364;6.452;2022-07-06T07:11:47;102319.22;;;16.40;79.54
54262;BME280;40174;52.364;6.452;2022-07-06T07:14:14;102323.34;;;16.44;79.01
54262;BME280;40174;52.364;6.452;2022-07-06T07:16:40;102321.25;;;16.48;78.93
54262;BME280;40174;52.364;6.452;2022-07-06T07:19:07;102326.47;;;16.49;79.17
54262;BME280;40174;52.364;6.452;2022-07-06T07:21:35;102329.78;;;16.41;78.51
54262;BME280;40174;52.364;6.452;2022-07-06T07:24:01;102332.31;;;16.43;79.40
54262;BME280;40174;52.364;6.452;2022-07-06T07:26:28;102330.75;;;16.40;79.14
54262;BME280;40174;52.364;6.452;2022-07-06T07:28:54;102329.28;;;16.36;80.04
54262;BME280;40174;52.364;6.452;2022-07-06T07:31:21;102340.13;;;16.35;81.00
54262;BME280;40174;52.364;6.452;2022-07-06T07:33:47;102346.41;;;16.34;81.71
54262;BME280;40174;52.364;6.452;2022-07-06T07:36:14;102344.00;;;16.31;81.64
54262;BME280;40174;52.364;6.452;2022-07-06T07:38:41;102336.00;;;16.31;82.04
54262;BME280;40174;52.364;6.452;2022-07-06T07:41:08;102346.66;;;16.31;82.08
54262;BME280;40174;52.364;6.452;2022-07-06T07:43:36;102342.06;;;16.33;82.18
54262;BME280;40174;52.364;6.452;2022-07-06T07:46:03;102334.63;;;16.36;82.29
54262;BME280;40174;52.364;6.452;2022-07-06T07:48:29;102338.28;;;16.35;82.10
54262;BME280;40174;52.364;6.452;2022-07-06T07:50:56;102340.47;;;16.41;82.78
54262;BME280;40174;52.364;6.452;2022-07-06T07:53:22;102335.97;;;16.42;83.40
54262;BME280;40174;52.364;6.452;2022-07-06T07:55:50;102337.06;;;16.39;83.12
54262;BME280;40174;52.364;6.452;2022-07-06T07:58:16;102340.56;;;16.51;83.49
54262;BME280;40174;52.364;6.452;2022-07-06T08:00:44;102336.16;;;16.61;80.77
54262;BME280;40174;52.364;6.452;2022-07-06T08:03:11;102333.06;;;16.77;80.27
54262;BME280;40174;52.364;6.452;2022-07-06T08:05:37;102320.75;;;16.97;78.06
54262;BME280;40174;52.364;6.452;2022-07-06T08:08:05;102329.28;;;17.12;76.94
54262;BME280;40174;52.364;6.452;2022-07-06T08:10:31;102323.09;;;17.12;76.13
54262;BME280;40174;52.364;6.452;2022-07-06T08:12:59;102321.28;;;17.12;76.26
54262;BME280;40174;52.364;6.452;2022-07-06T08:15:26;102325.31;;;17.07;75.98
54262;BME280;40174;52.364;6.452;2022-07-06T08:17:53;102333.91;;;17.10;76.07
54262;BME280;40174;52.364;6.452;2022-07-06T08:20:19;102331.91;;;17.02;75.70
54262;BME280;40174;52.364;6.452;2022-07-06T08:22:46;102328.97;;;17.06;75.53
54262;BME280;40174;52.364;6.452;2022-07-06T08:25:12;102329.81;;;17.06;74.46
54262;BME280;40174;52.364;6.452;2022-07-06T08:27:39;102329.94;;;17.04;74.85
54262;BME280;40174;52.364;6.452;2022-07-06T08:30:08;102332.56;;;17.16;74.34
54262;BME280;40174;52.364;6.452;2022-07-06T08:32:37;102335.22;;;17.37;74.47
54262;BME280;40174;52.364;6.452;2022-07-06T08:35:04;102328.44;;;17.54;71.02
54262;BME280;40174;52.364;6.452;2022-07-06T08:37:31;102337.41;;;17.74;70.07
54262;BME280;40174;52.364;6.452;2022-07-06T08:39:57;102326.00;;;18.02;69.21
54262;BME280;40174;52.364;6.452;2022-07-06T08:42:29;102316.94;;;18.34;68.90
54262;BME280;40174;52.364;6.452;2022-07-06T08:44:58;102336.53;;;18.54;67.91
54262;BME280;40174;52.364;6.452;2022-07-06T08:47:26;102333.06;;;18.13;67.51
54262;BME280;40174;52.364;6.452;2022-07-06T08:49:54;102337.91;;;18.29;69.78
54262;BME280;40174;52.364;6.452;2022-07-06T08:52:21;102331.75;;;18.48;69.23
54262;BME280;40174;52.364;6.452;2022-07-06T08:54:48;102331.50;;;18.80;69.12
54262;BME280;40174;52.364;6.452;2022-07-06T08:57:15;102335.00;;;19.10;67.10
54262;BME280;40174;52.364;6.452;2022-07-06T08:59:43;102324.13;;;19.21;63.60
54262;BME280;40174;52.364;6.452;2022-07-06T09:02:09;102322.50;;;19.10;62.15
54262;BME280;40174;52.364;6.452;2022-07-06T09:04:38;102322.03;;;19.25;63.55
54262;BME280;40174;52.364;6.452;2022-07-06T09:07:05;102307.66;;;19.63;63.96
54262;BME280;40174;52.364;6.452;2022-07-06T09:09:32;102309.22;;;19.76;62.58
54262;BME280;40174;52.364;6.452;2022-07-06T09:11:59;102318.53;;;19.62;61.32
54262;BME280;40174;52.364;6.452;2022-07-06T09:14:27;102317.34;;;19.46;61.74
54262;BME280;40174;52.364;6.452;2022-07-06T09:17:02;102327.41;;;19.15;62.40
54262;BME280;40174;52.364;6.452;2022-07-06T09:19:30;102329.25;;;19.05;61.20
54262;BME280;40174;52.364;6.452;2022-07-06T09:21:58;102329.09;;;18.97;60.77
54262;BME280;40174;52.364;6.452;2022-07-06T09:24:25;102340.38;;;19.00;61.68
54262;BME280;40174;52.364;6.452;2022-07-06T09:26:54;102335.59;;;18.94;61.26
54262;BME280;40174;52.364;6.452;2022-07-06T09:29:26;102328.25;;;18.96;62.61
54262;BME280;40174;52.364;6.452;2022-07-06T09:31:57;102329.69;;;19.00;61.83
54262;BME280;40174;52.364;6.452;2022-07-06T09:34:24;102328.94;;;19.37;61.84
54262;BME280;40174;52.364;6.452;2022-07-06T09:36:52;102331.88;;;19.34;61.09
54262;BME280;40174;52.364;6.452;2022-07-06T09:39:22;102334.84;;;19.31;61.37
54262;BME280;40174;52.364;6.452;2022-07-06T09:41:50;102331.91;;;19.24;60.54
54262;BME280;40174;52.364;6.452;2022-07-06T09:44:21;102325.97;;;19.21;61.78
54262;BME280;40174;52.364;6.452;2022-07-06T09:46:48;102329.63;;;19.29;61.97
54262;BME280;40174;52.364;6.452;2022-07-06T09:49:17;102329.28;;;19.71;61.68
54262;BME280;40174;52.364;6.452;2022-07-06T09:51:44;102333.22;;;20.05;61.64
54262;BME280;40174;52.364;6.452;2022-07-06T09:54:10;102345.69;;;20.24;59.83
54262;BME280;40174;52.364;6.452;2022-07-06T09:56:40;102334.06;;;20.51;58.34
54262;BME280;40174;52.364;6.452;2022-07-06T09:59:10;102339.66;;;20.67;58.48
54262;BME280;40174;52.364;6.452;2022-07-06T10:01:37;102333.69;;;20.46;54.96
54262;BME280;40174;52.364;6.452;2022-07-06T10:04:05;102331.28;;;20.70;57.21
54262;BME280;40174;52.364;6.452;2022-07-06T10:06:31;102335.38;;;20.83;56.07
54262;BME280;40174;52.364;6.452;2022-07-06T10:08:58;102334.72;;;20.81;55.95
54262;BME280;40174;52.364;6.452;2022-07-06T10:11:25;102348.75;;;20.57;55.16
54262;BME280;40174;52.364;6.452;2022-07-06T10:13:56;102337.97;;;20.39;56.20
54262;BME280;40174;52.364;6.452;2022-07-06T10:16:24;102344.72;;;20.43;56.68
54262;BME280;40174;52.364;6.452;2022-07-06T10:18:51;102348.19;;;20.53;56.04
54262;BME280;40174;52.364;6.452;2022-07-06T10:21:21;102344.00;;;20.68;54.99
54262;BME280;40174;52.364;6.452;2022-07-06T10:23:48;102337.56;;;20.61;55.08
54262;BME280;40174;52.364;6.452;2022-07-06T10:26:16;102334.69;;;20.45;55.43
54262;BME280;40174;52.364;6.452;2022-07-06T10:28:43;102334.13;;;20.41;55.23
54262;BME280;40174;52.364;6.452;2022-07-06T10:31:11;102333.78;;;20.54;54.25
54262;BME280;40174;52.364;6.452;2022-07-06T10:33:39;102343.44;;;20.65;55.09
54262;BME280;40174;52.364;6.452;2022-07-06T10:36:07;102331.72;;;20.84;55.08
54262;BME280;40174;52.364;6.452;2022-07-06T10:38:34;102333.56;;;21.01;52.48
54262;BME280;40174;52.364;6.452;2022-07-06T10:41:03;102325.94;;;21.14;52.73
54262;BME280;40174;52.364;6.452;2022-07-06T10:43:33;102322.81;;;21.27;52.85
54262;BME280;40174;52.364;6.452;2022-07-06T10:46:05;102321.34;;;21.33;52.23
54262;BME280;40174;52.364;6.452;2022-07-06T10:48:36;102326.09;;;21.39;51.65
54262;BME280;40174;52.364;6.452;2022-07-06T10:51:03;102318.38;;;21.62;50.31
54262;BME280;40174;52.364;6.452;2022-07-06T10:53:32;102315.00;;;22.03;51.87
54262;BME280;40174;52.364;6.452;2022-07-06T10:56:02;102321.69;;;22.41;49.90
54262;BME280;40174;52.364;6.452;2022-07-06T10:58:41;102320.88;;;22.57;49.45
54262;BME280;40174;52.364;6.452;2022-07-06T11:01:12;102323.38;;;22.34;47.23
54262;BME280;40174;52.364;6.452;2022-07-06T11:03:41;102322.16;;;22.28;47.72
54262;BME280;40174;52.364;6.452;2022-07-06T11:06:14;102314.47;;;22.33;47.54
54262;BME280;40174;52.364;6.452;2022-07-06T11:08:42;102312.78;;;22.49;47.94
54262;BME280;40174;52.364;6.452;2022-07-06T11:11:12;102307.22;;;22.50;48.81
54262;BME280;40174;52.364;6.452;2022-07-06T11:13:46;102305.22;;;22.69;47.58
54262;BME280;40174;52.364;6.452;2022-07-06T11:16:14;102313.16;;;22.95;51.41
54262;BME280;40174;52.364;6.452;2022-07-06T11:18:46;102322.63;;;23.07;45.86
54262;BME280;40174;52.364;6.452;2022-07-06T11:21:17;102316.00;;;22.93;45.27
54262;BME280;40174;52.364;6.452;2022-07-06T11:23:46;102312.69;;;23.08;45.96
54262;BME280;40174;52.364;6.452;2022-07-06T11:26:13;102310.28;;;23.29;45.55
54262;BME280;40174;52.364;6.452;2022-07-06T11:28:40;102305.75;;;23.13;44.73
54262;BME280;40174;52.364;6.452;2022-07-06T11:31:06;102309.16;;;23.07;46.35
54262;BME280;40174;52.364;6.452;2022-07-06T11:33:33;102296.97;;;23.19;47.07
54262;BME280;40174;52.364;6.452;2022-07-06T11:36:15;102315.53;;;23.14;45.77
54262;BME280;40174;52.364;6.452;2022-07-06T11:38:42;102307.97;;;23.10;46.25
54262;BME280;40174;52.364;6.452;2022-07-06T11:41:09;102308.28;;;23.07;45.62
54262;BME280;40174;52.364;6.452;2022-07-06T11:43:37;102311.97;;;22.97;44.75
54262;BME280;40174;52.364;6.452;2022-07-06T11:46:23;102301.53;;;22.78;45.77
54262;BME280;40174;52.364;6.452;2022-07-06T11:48:52;102296.16;;;23.11;48.04
54262;BME280;40174;52.364;6.452;2022-07-06T11:51:20;102294.22;;;23.44;46.08
54262;BME280;40174;52.364;6.452;2022-07-06T11:53:48;102289.97;;;23.50;42.33
54262;BME280;40174;52.364;6.452;2022-07-06T11:56:15;102283.44;;;23.44;44.08
54262;BME280;40174;52.364;6.452;2022-07-06T11:58:44;102280.25;;;23.40;44.17
54262;BME280;40174;52.364;6.452;2022-07-06T12:01:12;102271.00;;;23.35;43.67
54262;BME280;40174;52.364;6.452;2022-07-06T12:03:39;102277.84;;;23.54;44.33
54262;BME280;40174;52.364;6.452;2022-07-06T12:06:10;102277.84;;;23.54;43.97
54262;BME280;40174;52.364;6.452;2022-07-06T12:08:47;102257.00;;;23.39;43.04
54262;BME280;40174;52.364;6.452;2022-07-06T12:11:19;102266.97;;;23.31;43.72
54262;BME280;40174;52.364;6.452;2022-07-06T12:13:46;102270.63;;;23.46;43.63
54262;BME280;40174;52.364;6.452;2022-07-06T12:16:14;102255.63;;;23.91;43.00
54262;BME280;40174;52.364;6.452;2022-07-06T12:18:42;102255.84;;;24.59;43.77
54262;BME280;40174;52.364;6.452;2022-07-06T12:21:11;102254.41;;;24.71;41.40
54262;BME280;40174;52.364;6.452;2022-07-06T12:23:45;102257.88;;;24.80;41.53
54262;BME280;40174;52.364;6.452;2022-07-06T12:26:13;102250.44;;;24.59;42.06
54262;BME280;40174;52.364;6.452;2022-07-06T12:28:40;102257.59;;;24.52;42.26
54262;BME280;40174;52.364;6.452;2022-07-06T12:31:07;102254.75;;;24.68;42.50
54262;BME280;40174;52.364;6.452;2022-07-06T12:33:34;102261.25;;;24.36;42.51
54262;BME280;40174;52.364;6.452;2022-07-06T12:36:12;102256.38;;;24.08;42.17
54262;BME280;40174;52.364;6.452;2022-07-06T12:38:45;102247.44;;;24.31;42.58
54262;BME280;40174;52.364;6.452;2022-07-06T12:41:30;102247.47;;;24.45;41.15
54262;BME280;40174;52.364;6.452;2022-07-06T12:44:08;102260.06;;;24.61;40.82
54262;BME280;40174;52.364;6.452;2022-07-06T12:46:38;102256.84;;;24.81;39.82
54262;BME280;40174;52.364;6.452;2022-07-06T12:49:16;102259.81;;;25.09;41.09